Etusivu
METAR-TAF:

METAR-TAF

Lentoasemat :

Bardufoss, Norja

Leveyspiiri: 69-04N, Pituuspiiri: 018-32E, korkeus merenpinnasta: 7 m

Tämänhetkinen sää

Tämä raportti tehtiin 31 minuuttia sitten, kello 16.50 UTC
Tuuli 3 kn pohjoisesta, vaihdellen lännen ja koillisen välillä
Lämpötila 11°C
Kosteus 43%
Ilmanpaine 1014 hPa
Näkyvyys 10 km tai enemmän
Muutamia pilviä 4000 ft:n korkeudessa

METAR: ENDU 031650Z 35003KT 270V050 9999 FEW040 11/M01 Q1014 NOSIG RMK WIND 1100FT 31005KT WIND 2200FT 35005KT

Aika: 19:21 (17:21 UTC)

Sääennuste

Ennuste voimassa 03. päivästä klo 12 UTC - 04. päivään klo 12 UTC
Tuuli 8 kn lännestä/luoteesta
Näkyvyys 10 km tai enemmän
Muutamia pilviä 3000 ft:n korkeudessa
Hajonneita pilviä 4500 ft:n korkeudessa
Todennäköisyys 30%
04. päivästä klo 00 UTC - 04. päivään klo 06 UTC
Näkyvyys: 1200 m
Hajanaisia pilviä 100 ft:n korkeudessa
Osittain kattaa sumu

TAF: ENDU 0312/0412 30008KT 9999 FEW030 BKN045 PROB30 0400/0406 1200 PRFG SCT001

Säähavainnot ja -ennusteet yli 4000 lentoasemalta (METAR- ja TAF-raportit).

Käytössä olevat sääasemat on merkitty karttaan keltaisilla ja punaisilla pisteillä.

Aseta hiiri pisteen päälle nähdäksesi sääaseman nimen.

Klikkaa sitten nähdäksesi säähavainnot ja -ennusteet.

Kartan vaihtaminen: klikkaa mustalla rastilla varustettuja vihreitä pisteitä, niin voit zoomata sisään; viivalla varustettua vihreää pistettä, niin voit zoomata ulos tai vihreitä nuolia, niin pääset viereisille kartoille.


METAR-TAF: